Silver Lake, Michigan
Current Conditions -  °F | °C
As of 12:15 PM on Friday 19 Dec 2014 (Local Time) from KLDM Reporting Station
Scattered Clouds Scattered Clouds  
Wind Chill: -6°   Ceiling: Unl
Heat Index: -2°   Visibility: 10mi
Dew Point: -4°   Wind: 7mph
Humidity: 90%   Direction: 90°E
Pressure: 30.28"   Gusts: NA
Location:  43.6851°N, 86.4584°W
Report Text: KLDM 191715Z AUTO 09006KT 10SM SCT023 M02/M03 A3028 RMK AO2 T10211035
Loading
Personal Weather Stations






























Interactive Weather Map New forecast layout! Learn more

10-Day Weather Forecast

Advertisements
Track Severe Weather on mobile